createdAt,value
2017-07-26T00:00:54.358Z,59.60
2017-07-26T00:03:21.861Z,59.50
2017-07-26T00:05:49.493Z,59.60
2017-07-26T00:08:17.000Z,59.60
2017-07-26T00:10:44.537Z,59.60
2017-07-26T00:13:12.019Z,59.70
2017-07-26T00:15:39.538Z,59.80
2017-07-26T00:18:07.821Z,59.60
2017-07-26T00:20:36.194Z,59.70
2017-07-26T00:23:04.496Z,59.90
2017-07-26T00:25:32.019Z,59.90
2017-07-26T00:27:59.527Z,59.90
2017-07-26T00:30:27.051Z,59.80
2017-07-26T00:32:55.329Z,59.70
2017-07-26T00:35:23.624Z,59.70
2017-07-26T00:37:51.129Z,59.70
2017-07-26T00:40:18.681Z,59.90
2017-07-26T00:42:46.196Z,59.80
2017-07-26T00:45:13.725Z,59.80
2017-07-26T00:47:43.014Z,59.90
2017-07-26T00:50:10.542Z,59.90
2017-07-26T00:52:38.073Z,59.90
2017-07-26T00:55:05.607Z,60.00
2017-07-26T00:57:33.887Z,60.90
2017-07-26T01:00:02.170Z,60.00
2017-07-26T01:02:29.741Z,60.00
2017-07-26T01:04:57.387Z,60.00
2017-07-26T01:07:24.910Z,60.00
2017-07-26T01:09:52.369Z,60.00
2017-07-26T01:12:19.905Z,60.10
2017-07-26T01:14:47.409Z,60.00
2017-07-26T01:17:15.670Z,60.00
2017-07-26T01:19:43.949Z,61.10
2017-07-26T01:22:12.219Z,60.00
2017-07-26T01:24:39.729Z,60.00
2017-07-26T01:27:07.234Z,60.10
2017-07-26T01:29:34.734Z,59.90
2017-07-26T01:32:02.270Z,59.90
2017-07-26T01:34:30.541Z,60.10
2017-07-26T01:36:58.813Z,60.10
2017-07-26T01:39:27.099Z,60.10
2017-07-26T01:41:55.369Z,60.00
2017-07-26T01:44:23.678Z,60.10
2017-07-26T01:46:51.519Z,60.00
2017-07-26T01:49:19.777Z,60.10
2017-07-26T01:51:48.149Z,60.10
2017-07-26T01:54:15.657Z,60.00
2017-07-26T01:56:43.161Z,60.10
2017-07-26T01:59:10.670Z,60.10
2017-07-26T02:01:38.230Z,60.10
2017-07-26T02:04:05.730Z,60.00
2017-07-26T02:06:33.370Z,60.10
2017-07-26T02:09:00.913Z,60.00
2017-07-26T02:11:28.389Z,60.10
2017-07-26T02:13:55.926Z,60.00
2017-07-26T02:16:23.526Z,60.00
2017-07-26T02:18:51.046Z,60.10
2017-07-26T02:21:18.542Z,60.30
2017-07-26T02:23:46.045Z,60.30
2017-07-26T02:26:13.568Z,60.20
2017-07-26T02:28:41.065Z,60.20
2017-07-26T02:31:08.591Z,60.50
2017-07-26T02:33:36.124Z,60.30
2017-07-26T02:36:03.654Z,60.30
2017-07-26T02:38:31.183Z,60.30
2017-07-26T02:40:58.689Z,60.20
2017-07-26T02:43:26.206Z,60.30
2017-07-26T02:45:53.691Z,60.20
2017-07-26T02:48:21.214Z,60.20
2017-07-26T02:50:48.713Z,60.30
2017-07-26T02:53:16.353Z,60.30
2017-07-26T02:55:43.877Z,60.30
2017-07-26T02:58:12.142Z,60.30
2017-07-26T03:00:40.446Z,60.20
2017-07-26T03:03:07.954Z,60.10
2017-07-26T03:05:35.442Z,60.20
2017-07-26T03:08:03.742Z,60.20
2017-07-26T03:10:31.247Z,60.20
2017-07-26T03:12:58.766Z,60.40
2017-07-26T03:15:26.269Z,60.20
2017-07-26T03:17:53.794Z,60.30
2017-07-26T03:20:21.350Z,60.50
2017-07-26T03:22:49.112Z,60.30
2017-07-26T03:25:16.631Z,60.40
2017-07-26T03:27:44.894Z,60.30
2017-07-26T03:30:12.458Z,60.20
2017-07-26T03:32:40.743Z,60.40
2017-07-26T03:35:09.026Z,60.40
2017-07-26T03:37:37.297Z,60.50
2017-07-26T03:40:04.798Z,60.40
2017-07-26T03:42:32.313Z,60.50
2017-07-26T03:45:00.118Z,60.40
2017-07-26T03:47:27.644Z,60.70
2017-07-26T03:49:55.162Z,60.40
2017-07-26T03:52:22.735Z,60.50
2017-07-26T03:54:50.259Z,60.40
2017-07-26T03:57:17.786Z,60.40
2017-07-26T03:59:45.281Z,60.40
2017-07-26T04:02:12.785Z,60.30
2017-07-26T04:04:41.082Z,60.50
2017-07-26T04:07:08.597Z,60.40
2017-07-26T04:09:36.099Z,60.40
2017-07-26T04:12:03.689Z,60.40
2017-07-26T04:14:31.181Z,60.50
2017-07-26T04:16:58.705Z,60.30
2017-07-26T04:19:26.298Z,59.70
2017-07-26T04:21:53.794Z,60.50
2017-07-26T04:24:21.370Z,60.70
2017-07-26T04:26:49.105Z,60.60
2017-07-26T04:29:16.628Z,60.40
2017-07-26T04:31:44.314Z,60.50
2017-07-26T04:34:11.834Z,60.60
2017-07-26T04:36:39.451Z,60.50
2017-07-26T04:39:06.951Z,60.60
2017-07-26T04:41:34.488Z,60.60
2017-07-26T04:44:01.973Z,60.50
2017-07-26T04:46:29.469Z,60.40
2017-07-26T04:48:57.749Z,60.40
2017-07-26T04:51:25.261Z,60.30
2017-07-26T04:53:52.765Z,60.60
2017-07-26T04:56:20.275Z,60.40
2017-07-26T04:58:47.794Z,60.40
2017-07-26T05:01:15.315Z,60.50
2017-07-26T05:03:43.078Z,60.70
2017-07-26T05:06:10.595Z,60.70
2017-07-26T05:08:38.110Z,60.50
2017-07-26T05:11:05.722Z,60.40
2017-07-26T05:13:33.236Z,60.50
2017-07-26T05:16:00.741Z,60.50
2017-07-26T05:18:28.262Z,60.40
2017-07-26T05:20:55.757Z,60.40
2017-07-26T05:23:23.278Z,60.40
2017-07-26T05:25:50.794Z,60.40
2017-07-26T05:28:18.302Z,60.50
2017-07-26T05:30:45.801Z,60.40
2017-07-26T05:33:13.326Z,60.30
2017-07-26T05:35:40.850Z,60.40
2017-07-26T05:38:09.363Z,60.30
2017-07-26T05:40:36.882Z,60.30
2017-07-26T05:43:04.410Z,60.40
2017-07-26T05:45:31.951Z,60.40
2017-07-26T05:47:59.509Z,60.30
2017-07-26T05:50:27.065Z,60.40
2017-07-26T05:52:54.717Z,60.30
2017-07-26T05:55:22.243Z,60.40
2017-07-26T05:57:50.522Z,60.60
2017-07-26T06:00:18.051Z,60.40
2017-07-26T06:02:45.549Z,60.60
2017-07-26T06:05:13.052Z,60.50
2017-07-26T06:07:40.578Z,60.50
2017-07-26T06:10:08.086Z,60.50
2017-07-26T06:12:35.845Z,60.60
2017-07-26T06:15:03.371Z,60.50
2017-07-26T06:17:30.867Z,60.40
2017-07-26T06:19:58.376Z,60.50
2017-07-26T06:22:25.873Z,60.60
2017-07-26T06:24:53.393Z,60.40
2017-07-26T06:27:20.923Z,60.50
2017-07-26T06:29:49.271Z,60.60
2017-07-26T06:32:16.774Z,60.40
2017-07-26T06:34:44.287Z,60.40
2017-07-26T06:37:11.844Z,60.30
2017-07-26T06:39:39.378Z,60.40
2017-07-26T06:42:06.883Z,60.30
2017-07-26T06:44:35.160Z,60.30
2017-07-26T06:47:03.466Z,60.40
2017-07-26T06:49:31.022Z,60.30
2017-07-26T06:51:58.525Z,60.30
2017-07-26T06:54:26.026Z,60.50
2017-07-26T06:56:53.541Z,60.40
2017-07-26T06:59:21.097Z,60.30
2017-07-26T07:01:48.612Z,60.30
2017-07-26T07:04:16.135Z,60.30
2017-07-26T07:06:43.651Z,60.40
2017-07-26T07:09:11.140Z,60.30
2017-07-26T07:11:38.650Z,60.20
2017-07-26T07:14:06.175Z,60.30
2017-07-26T07:16:34.430Z,60.30
2017-07-26T07:19:01.966Z,60.20
2017-07-26T07:21:29.486Z,60.30
2017-07-26T07:23:56.999Z,60.50
2017-07-26T07:26:25.302Z,61.40
2017-07-26T07:28:52.831Z,61.40
2017-07-26T07:31:21.235Z,61.60
2017-07-26T07:33:48.850Z,61.60
2017-07-26T07:36:16.395Z,61.30
2017-07-26T07:38:43.968Z,61.40
2017-07-26T07:41:11.471Z,61.20
2017-07-26T07:43:39.021Z,61.10
2017-07-26T07:46:06.546Z,61.20
2017-07-26T07:48:45.133Z,61.00
2017-07-26T07:51:12.654Z,61.10
2017-07-26T07:53:40.153Z,61.30
2017-07-26T07:56:07.670Z,61.10
2017-07-26T07:58:35.195Z,61.20
2017-07-26T08:01:02.698Z,61.10
2017-07-26T08:03:30.223Z,60.90
2017-07-26T08:05:58.494Z,60.70
2017-07-26T08:08:26.837Z,61.00
2017-07-26T08:10:54.392Z,60.90
2017-07-26T08:13:21.967Z,60.70
2017-07-26T08:15:49.491Z,60.30
2017-07-26T08:18:17.022Z,59.90
2017-07-26T08:20:45.346Z,60.00
2017-07-26T08:23:12.928Z,59.90
2017-07-26T08:25:40.525Z,59.90
2017-07-26T08:28:08.033Z,60.00
2017-07-26T08:30:35.551Z,60.00
2017-07-26T08:33:03.041Z,60.20
2017-07-26T08:35:30.553Z,60.20
2017-07-26T08:37:58.082Z,60.40
2017-07-26T08:40:25.630Z,61.30
2017-07-26T08:42:53.173Z,60.60
2017-07-26T08:45:20.695Z,60.70
2017-07-26T08:47:48.225Z,60.70
2017-07-26T08:50:16.500Z,61.40
2017-07-26T08:52:44.766Z,60.90
2017-07-26T08:55:12.295Z,60.70
2017-07-26T08:57:39.784Z,60.90
2017-07-26T09:00:08.089Z,60.60
2017-07-26T09:02:35.639Z,59.90
2017-07-26T09:05:03.975Z,60.10
2017-07-26T09:07:31.470Z,60.00
2017-07-26T09:09:59.795Z,59.70
2017-07-26T09:12:27.290Z,59.70
2017-07-26T09:14:54.832Z,59.50
2017-07-26T09:17:22.425Z,59.60
2017-07-26T09:19:50.710Z,59.30
2017-07-26T09:22:18.222Z,59.30
2017-07-26T09:24:46.900Z,59.20
2017-07-26T09:27:16.642Z,59.20
2017-07-26T09:29:44.981Z,59.30
2017-07-26T09:32:12.846Z,59.20
2017-07-26T09:34:40.498Z,59.30
2017-07-26T09:37:08.146Z,59.30
2017-07-26T09:39:36.247Z,59.30
2017-07-26T09:42:03.983Z,59.10
2017-07-26T09:44:31.555Z,59.20
2017-07-26T09:46:59.205Z,59.00
2017-07-26T09:49:26.760Z,59.00
2017-07-26T09:51:54.410Z,59.10
2017-07-26T09:54:21.930Z,58.90
2017-07-26T09:56:49.429Z,58.70
2017-07-26T09:59:17.047Z,58.70
2017-07-26T10:01:45.342Z,59.40
2017-07-26T10:04:13.634Z,58.80
2017-07-26T10:06:41.905Z,58.90
2017-07-26T10:09:10.181Z,59.00
2017-07-26T10:11:38.498Z,59.20
2017-07-26T10:14:06.013Z,59.10
2017-07-26T10:16:33.538Z,59.10
2017-07-26T10:19:01.083Z,59.00
2017-07-26T10:21:28.585Z,59.10
2017-07-26T10:23:56.995Z,59.30
2017-07-26T10:26:24.536Z,59.20
2017-07-26T10:28:52.130Z,59.10
2017-07-26T10:31:19.702Z,59.00
2017-07-26T10:33:47.256Z,59.00
2017-07-26T10:36:14.854Z,58.80
2017-07-26T10:38:43.163Z,58.80
2017-07-26T10:41:10.701Z,58.70
2017-07-26T10:43:38.970Z,58.80
2017-07-26T10:46:06.504Z,58.80
2017-07-26T10:48:34.049Z,58.70
2017-07-26T10:51:01.585Z,58.60
2017-07-26T10:53:29.120Z,58.50
2017-07-26T10:55:56.630Z,58.60
2017-07-26T10:58:24.134Z,58.60
2017-07-26T11:00:51.710Z,58.50
2017-07-26T11:03:19.248Z,58.50
2017-07-26T11:05:46.744Z,58.50
2017-07-26T11:08:14.269Z,58.50
2017-07-26T11:10:41.777Z,58.50
2017-07-26T11:13:09.327Z,58.50
2017-07-26T11:15:36.829Z,58.50
2017-07-26T11:18:05.085Z,58.60
2017-07-26T11:20:33.462Z,59.50
2017-07-26T11:23:01.758Z,59.40
2017-07-26T11:25:29.280Z,58.50
2017-07-26T11:27:56.838Z,58.60
2017-07-26T11:30:24.510Z,58.70
2017-07-26T11:32:52.015Z,58.80
2017-07-26T11:35:19.524Z,58.80
2017-07-26T11:37:47.058Z,58.80
2017-07-26T11:40:14.651Z,58.90
2017-07-26T11:42:42.198Z,58.90
2017-07-26T11:45:09.705Z,59.00
2017-07-26T11:47:37.221Z,59.00
2017-07-26T11:50:04.767Z,59.10
2017-07-26T11:52:32.322Z,59.10
2017-07-26T11:54:59.834Z,59.10
2017-07-26T11:57:27.396Z,59.00
2017-07-26T11:59:54.934Z,59.10
2017-07-26T12:02:23.208Z,59.20
2017-07-26T12:04:51.565Z,59.10
2017-07-26T12:07:19.098Z,59.00
2017-07-26T12:09:46.615Z,59.10
2017-07-26T12:12:14.139Z,59.00
2017-07-26T12:14:41.718Z,59.10
2017-07-26T12:17:10.004Z,59.10
2017-07-26T12:19:38.297Z,59.20
2017-07-26T12:22:05.832Z,59.10
2017-07-26T12:24:34.110Z,59.20
2017-07-26T12:27:01.617Z,59.20
2017-07-26T12:29:29.140Z,59.20
2017-07-26T12:31:56.626Z,59.20
2017-07-26T12:34:24.139Z,59.20
2017-07-26T12:36:52.418Z,59.40
2017-07-26T12:39:20.823Z,59.30
2017-07-26T12:41:48.347Z,59.20
2017-07-26T12:44:16.618Z,59.30
2017-07-26T12:46:44.963Z,59.30
2017-07-26T12:49:12.459Z,59.30
2017-07-26T12:51:39.997Z,59.40
2017-07-26T12:54:07.547Z,59.40
2017-07-26T12:56:35.113Z,60.40
2017-07-26T12:59:03.599Z,60.80
2017-07-26T13:01:31.171Z,60.90
2017-07-26T13:03:58.720Z,60.60
2017-07-26T13:06:26.262Z,60.40
2017-07-26T13:08:53.800Z,60.50
2017-07-26T13:11:21.318Z,60.50
2017-07-26T13:13:48.866Z,60.30
2017-07-26T13:16:17.163Z,61.50
2017-07-26T13:18:44.679Z,61.50
2017-07-26T13:21:13.703Z,62.00
2017-07-26T13:23:41.258Z,62.00
2017-07-26T13:26:08.818Z,62.10
2017-07-26T13:28:36.378Z,62.20
2017-07-26T13:31:03.902Z,62.40
2017-07-26T13:33:32.270Z,62.50
2017-07-26T13:35:59.798Z,62.40
2017-07-26T13:38:27.321Z,62.40
2017-07-26T13:40:54.868Z,62.30
2017-07-26T13:43:22.396Z,62.30
2017-07-26T13:45:49.914Z,62.10
2017-07-26T13:48:17.424Z,62.30
2017-07-26T13:50:44.986Z,62.10
2017-07-26T13:53:13.291Z,61.80
2017-07-26T13:55:40.832Z,62.70
2017-07-26T13:58:09.268Z,61.80
2017-07-26T14:00:36.830Z,61.90
2017-07-26T14:03:04.388Z,61.90
2017-07-26T14:05:31.921Z,62.00
2017-07-26T14:07:59.508Z,61.70
2017-07-26T14:10:27.096Z,61.60
2017-07-26T14:12:54.625Z,61.50
2017-07-26T14:15:22.117Z,61.40
2017-07-26T14:17:49.719Z,61.40
2017-07-26T14:20:17.335Z,61.50
2017-07-26T14:22:44.926Z,61.30
2017-07-26T14:25:12.514Z,61.00
2017-07-26T14:27:40.126Z,61.00
2017-07-26T14:30:07.679Z,61.10
2017-07-26T14:32:35.223Z,61.00
2017-07-26T14:35:03.499Z,61.00
2017-07-26T14:37:31.145Z,61.00
2017-07-26T14:39:59.434Z,61.10
2017-07-26T14:42:26.933Z,61.00
2017-07-26T14:44:54.442Z,61.20
2017-07-26T14:47:22.728Z,61.30
2017-07-26T14:49:50.336Z,61.20
2017-07-26T14:52:17.910Z,61.50
2017-07-26T14:54:45.470Z,61.50
2017-07-26T14:57:13.131Z,61.70
2017-07-26T14:59:40.689Z,61.80
2017-07-26T15:02:08.254Z,62.00
2017-07-26T15:04:35.913Z,62.20
2017-07-26T15:07:03.509Z,62.20
2017-07-26T15:09:31.850Z,62.30
2017-07-26T15:11:59.363Z,62.20
2017-07-26T15:14:26.927Z,62.10
2017-07-26T15:16:54.443Z,62.30
2017-07-26T15:19:21.946Z,62.30
2017-07-26T15:21:49.534Z,62.50
2017-07-26T15:24:17.087Z,62.40
2017-07-26T15:26:44.605Z,62.40
2017-07-26T15:29:12.862Z,62.50
2017-07-26T15:31:41.198Z,63.60
2017-07-26T15:34:08.727Z,62.70
2017-07-26T15:36:36.258Z,62.70
2017-07-26T15:39:04.540Z,61.40
2017-07-26T15:41:32.810Z,60.60
2017-07-26T15:44:01.096Z,61.60
2017-07-26T15:46:29.418Z,60.30
2017-07-26T15:48:56.955Z,60.30
2017-07-26T15:51:24.463Z,60.20
2017-07-26T15:53:51.996Z,60.30
2017-07-26T15:56:19.532Z,59.90
2017-07-26T15:58:47.082Z,59.80
2017-07-26T16:01:14.639Z,59.70
2017-07-26T16:03:42.301Z,59.70
2017-07-26T16:06:09.955Z,59.80
2017-07-26T16:08:37.444Z,59.50
2017-07-26T16:11:04.981Z,59.60
2017-07-26T16:13:32.518Z,59.50
2017-07-26T16:16:00.025Z,59.50
2017-07-26T16:18:27.538Z,59.70
2017-07-26T16:20:55.112Z,59.50
2017-07-26T16:23:22.679Z,59.50
2017-07-26T16:25:50.281Z,59.40
2017-07-26T16:28:17.811Z,59.40
2017-07-26T16:30:45.347Z,59.50
2017-07-26T16:33:12.877Z,59.40
2017-07-26T16:35:41.343Z,59.50
2017-07-26T16:38:09.703Z,59.40
2017-07-26T16:40:37.328Z,59.50
2017-07-26T16:43:04.854Z,59.50
2017-07-26T16:45:33.131Z,59.50
2017-07-26T16:48:00.696Z,59.40
2017-07-26T16:50:28.233Z,59.50
2017-07-26T16:52:56.548Z,59.60
2017-07-26T16:55:24.234Z,59.40
2017-07-26T16:57:51.819Z,59.50
2017-07-26T17:00:19.379Z,59.50
2017-07-26T17:02:47.665Z,59.50
2017-07-26T17:05:16.004Z,59.60
2017-07-26T17:07:43.528Z,59.50
2017-07-26T17:10:11.067Z,59.50
2017-07-26T17:12:39.355Z,59.60
2017-07-26T17:15:06.901Z,59.60
2017-07-26T17:17:35.183Z,59.50
2017-07-26T17:20:02.750Z,59.50
2017-07-26T17:22:30.278Z,59.50
2017-07-26T17:24:57.801Z,59.50
2017-07-26T17:27:25.310Z,59.50
2017-07-26T17:29:52.870Z,59.60
2017-07-26T17:32:21.247Z,59.50
2017-07-26T17:34:49.490Z,59.50
2017-07-26T17:37:17.013Z,59.40
2017-07-26T17:39:44.575Z,59.60
2017-07-26T17:42:12.108Z,59.50
2017-07-26T17:44:39.686Z,59.60
2017-07-26T17:47:07.380Z,59.50
2017-07-26T17:49:34.903Z,59.40
2017-07-26T17:52:02.431Z,59.50
2017-07-26T17:54:30.738Z,59.50
2017-07-26T17:56:58.269Z,59.40
2017-07-26T17:59:26.579Z,59.40
2017-07-26T18:01:54.127Z,59.40
2017-07-26T18:04:21.669Z,59.40
2017-07-26T18:06:49.225Z,59.40
2017-07-26T18:09:17.510Z,59.40
2017-07-26T18:11:45.058Z,59.40
2017-07-26T18:14:13.362Z,59.40
2017-07-26T18:16:40.893Z,59.40
2017-07-26T18:19:09.201Z,59.40
2017-07-26T18:21:36.788Z,59.40
2017-07-26T18:24:04.432Z,59.40
2017-07-26T18:26:32.104Z,59.40
2017-07-26T18:28:59.666Z,59.40
2017-07-26T18:31:27.225Z,59.40
2017-07-26T18:33:54.759Z,59.30
2017-07-26T18:36:22.400Z,59.30
2017-07-26T18:38:50.661Z,59.30
2017-07-26T18:41:18.984Z,59.30
2017-07-26T18:43:46.488Z,59.20
2017-07-26T18:46:14.793Z,59.30
2017-07-26T18:48:42.353Z,59.20
2017-07-26T18:51:09.886Z,59.30
2017-07-26T18:53:38.514Z,59.40
2017-07-26T18:56:06.049Z,59.30
2017-07-26T18:58:33.599Z,59.40
2017-07-26T19:01:01.133Z,59.40
2017-07-26T19:03:28.763Z,59.40
2017-07-26T19:05:56.317Z,59.40
2017-07-26T19:08:23.923Z,59.40
2017-07-26T19:10:52.245Z,60.10
2017-07-26T19:13:19.873Z,59.40
2017-07-26T19:15:47.451Z,59.50
2017-07-26T19:18:15.016Z,59.70
2017-07-26T19:20:42.626Z,59.90
2017-07-26T19:23:10.191Z,59.90
2017-07-26T19:25:37.707Z,59.90
2017-07-26T19:28:05.234Z,59.90
2017-07-26T19:30:32.774Z,60.00
2017-07-26T19:33:01.084Z,60.20
2017-07-26T19:35:28.615Z,60.20
2017-07-26T19:37:56.903Z,60.10
2017-07-26T19:40:24.539Z,60.00
2017-07-26T19:42:52.101Z,60.10
2017-07-26T19:48:12.896Z,60.30
2017-07-26T19:50:40.450Z,60.20
2017-07-26T19:53:07.978Z,60.50
2017-07-26T19:55:35.550Z,60.00
2017-07-26T19:58:03.076Z,60.30
2017-07-26T20:00:31.342Z,60.50
2017-07-26T20:02:58.890Z,60.40
2017-07-26T20:05:27.142Z,61.70
2017-07-26T20:07:54.843Z,60.50
2017-07-26T20:10:23.179Z,60.10
2017-07-26T20:12:50.751Z,60.00
2017-07-26T20:15:18.318Z,60.00
2017-07-26T20:17:45.872Z,59.80
2017-07-26T20:20:13.386Z,59.80
2017-07-26T20:22:40.944Z,59.70
2017-07-26T20:25:08.513Z,59.70
2017-07-26T20:27:36.105Z,59.70
2017-07-26T20:30:03.660Z,59.70
2017-07-26T20:32:31.364Z,59.70
2017-07-26T20:34:58.871Z,59.60
2017-07-26T20:37:26.398Z,59.50
2017-07-26T20:39:53.971Z,59.50
2017-07-26T20:42:21.561Z,59.60
2017-07-26T20:44:49.099Z,59.60
2017-07-26T20:47:16.633Z,59.50
2017-07-26T20:49:44.158Z,59.40
2017-07-26T20:52:12.451Z,59.40
2017-07-26T20:54:40.026Z,59.30
2017-07-26T20:57:07.602Z,59.40
2017-07-26T20:59:35.106Z,59.40
2017-07-26T21:02:03.482Z,59.30
2017-07-26T21:04:31.122Z,59.20
2017-07-26T21:06:58.654Z,59.30
2017-07-26T21:09:26.204Z,59.40
2017-07-26T21:11:53.876Z,59.20
2017-07-26T21:14:21.395Z,59.30
2017-07-26T21:16:49.083Z,59.20
2017-07-26T21:19:16.588Z,59.30
2017-07-26T21:21:44.199Z,59.20
2017-07-26T21:24:11.862Z,59.20
2017-07-26T21:26:39.440Z,59.20
2017-07-26T21:29:06.950Z,59.20
2017-07-26T21:31:35.308Z,59.20
2017-07-26T21:34:02.864Z,59.10
2017-07-26T21:36:30.400Z,59.10
2017-07-26T21:38:57.877Z,59.10
2017-07-26T21:41:25.388Z,59.10
2017-07-26T21:43:52.898Z,59.10
2017-07-26T21:46:20.445Z,59.10
2017-07-26T21:48:48.168Z,59.10
2017-07-26T21:51:15.739Z,59.00
2017-07-26T21:53:43.298Z,59.00
2017-07-26T21:56:10.825Z,59.00
2017-07-26T21:58:38.326Z,59.10
2017-07-26T22:01:05.861Z,59.00
2017-07-26T22:03:33.370Z,59.00
2017-07-26T22:06:00.979Z,59.20
2017-07-26T22:08:28.607Z,59.20
2017-07-26T22:10:56.890Z,59.10
2017-07-26T22:13:24.443Z,59.00
2017-07-26T22:15:52.727Z,59.10
2017-07-26T22:18:21.010Z,59.10
2017-07-26T22:20:48.506Z,59.90
2017-07-26T22:23:16.071Z,59.10
2017-07-26T22:25:43.562Z,59.00
2017-07-26T22:28:11.843Z,59.20
2017-07-26T22:30:40.125Z,59.00
2017-07-26T22:33:08.389Z,59.10
2017-07-26T22:35:36.814Z,59.10
2017-07-26T22:38:04.330Z,59.00
2017-07-26T22:40:32.607Z,59.00
2017-07-26T22:43:00.935Z,59.00
2017-07-26T22:45:28.452Z,59.00
2017-07-26T22:47:56.747Z,59.00
2017-07-26T22:50:24.260Z,59.00
2017-07-26T22:52:51.803Z,59.00
2017-07-26T22:55:19.346Z,59.00
2017-07-26T22:57:46.922Z,59.00
2017-07-26T23:00:14.470Z,59.10
2017-07-26T23:02:42.097Z,59.10
2017-07-26T23:05:09.618Z,59.20
2017-07-26T23:07:37.885Z,59.70
2017-07-26T23:10:05.420Z,59.10
2017-07-26T23:12:33.110Z,59.00
2017-07-26T23:15:00.658Z,59.90
2017-07-26T23:17:28.168Z,59.10
2017-07-26T23:19:56.366Z,59.00
2017-07-26T23:22:23.863Z,59.10
2017-07-26T23:24:52.172Z,59.00
2017-07-26T23:27:19.695Z,59.00
2017-07-26T23:29:47.200Z,59.00
2017-07-26T23:32:14.816Z,59.00
2017-07-26T23:34:42.329Z,59.00
2017-07-26T23:37:09.841Z,59.10
2017-07-26T23:39:38.181Z,59.00
2017-07-26T23:42:05.678Z,59.00
2017-07-26T23:44:33.949Z,59.00
2017-07-26T23:47:02.246Z,59.00
2017-07-26T23:49:29.763Z,59.00
2017-07-26T23:51:57.367Z,59.00
2017-07-26T23:54:24.887Z,59.00
2017-07-26T23:56:52.390Z,59.00
2017-07-26T23:59:19.923Z,59.00
